Terminal Aerodrome Forecast
Issued by NWS

Home | Current Version | Previous Version | Text Only | Print | Product List | Glossary On
Versions: 1 2 3 4 5 6 7 8 9 10 11 12 13 14 15 16 17 18 19 20
283
FTUS43 KLSX 260918 AAA
TAFUIN
TAF AMD
KUIN 260918Z 2609/2706 18008KT P6SM VCTS BKN040CB
      TEMPO 2609/2612 VRB25KT 4SM TSRA BKN030CB
     FM261200 19007KT P6SM BKN040
     FM262200 16008KT P6SM SCT200=

USA.gov is the U.S. government's official web portal to all federal, state and local government web resources and services.